McCook, NE (69001)

11:23 AM CDT on August 30, 2015 (GMT -0500)
KNEMCCOO2 | | Change Station
CLOSE
Current Station
Personal Weather Station
Location: McCook, NE
Elevation: 2609 ft
Nearby Weather Stations

Elev 2609 ft 40.21 °N, 100.64 °W | Updated 7 minutes ago

Clear
Clear
76.3 °F
Feels Like 78 °F
N
1.1
Wind Variable Wind from South
Gusts 5.3 mph

Today
High -- | Low -- °F
--% Chance of Precip.
Yesterday
High -- | Low -- °F
Precip. -- in
7:08 AM 8:17 PM
Full, 99% visible
Pressure 29.95 in
Visibility 8.0 miles
Clouds Clear
Heat Index 78 °F
Dew Point 58 °F
Humidity 54%
Rainfall 0.00 in
Snow Depth Not available.
UV 6 out of 12
Pollen 10.70 out of 12
Air Quality Not available.
Flu Activity Not available.
METAR KMCK 301553Z AUTO 17005KT 8SM CLR 27/14 A3002 RMK AO2 SLP142 T02670139
Pressure 29.95 in
Visibility 8.0 miles
Clouds Clear
Heat Index 78 °F
Dew Point 58 °F
Humidity 54%
Rainfall 0.00 in
Snow Depth Not available.
UV 6 out of 12
Pollen 10.70 out of 12
Air Quality Not available.
Flu Activity Not available.
METAR KMCK 301553Z AUTO 17005KT 8SM CLR 27/14 A3002 RMK AO2 SLP142 T02670139

10-Day Weather Forecast

×

Almanac

Astronomy

Aug. 30, 2015 Rise Set
Actual Time
Civil Twilight
Nautical Twilight
Astronomical Twilight
Moon
Length of Visible Light
Length of Day
Tomorrow will be .
, % of the Moon is Illuminated

Today's Extremes

State Highs State Lows

Community

WunderPhotos

Upload Photos

1,851,005 photos uploaded!

WunderBlogs® & News

Nearby

Air Quality

  Air Quality AQ Index Pollutant
Not available.

Snow Depth

Station Depth Elevation

Earthquake Activity

City Distance Mag. Time & Date
Minimum magnitude displayed is 2.5.

Coastal Water Temperatures

Place Temperature

Stations

Nearby Weather Stations

Station Location Temp. Windchill Dew Point Humidity Wind Precip. Elev Updated Type